sensor_id;sensor_type;location;lat;lon;timestamp;pressure;altitude;pressure_sealevel;temperature;humidity
9335;BME280;4706;41.844;26.082;2023-12-29T00:02:23;101560.88;;;8.22;71.55
9335;BME280;4706;41.844;26.082;2023-12-29T00:04:48;101553.81;;;7.99;71.89
9335;BME280;4706;41.844;26.082;2023-12-29T00:07:15;101540.25;;;7.83;72.63
9335;BME280;4706;41.844;26.082;2023-12-29T00:09:40;101535.75;;;7.71;72.78
9335;BME280;4706;41.844;26.082;2023-12-29T00:12:06;101543.97;;;7.71;73.29
9335;BME280;4706;41.844;26.082;2023-12-29T00:14:32;101551.09;;;7.72;72.88
9335;BME280;4706;41.844;26.082;2023-12-29T00:16:58;101545.13;;;7.81;72.63
9335;BME280;4706;41.844;26.082;2023-12-29T00:19:24;101543.50;;;7.79;72.77
9335;BME280;4706;41.844;26.082;2023-12-29T00:21:49;101543.81;;;7.83;72.90
9335;BME280;4706;41.844;26.082;2023-12-29T00:24:14;101541.94;;;7.62;73.14
9335;BME280;4706;41.844;26.082;2023-12-29T00:26:40;101537.34;;;7.67;72.63
9335;BME280;4706;41.844;26.082;2023-12-29T00:29:05;101536.41;;;7.57;73.05
9335;BME280;4706;41.844;26.082;2023-12-29T00:31:32;101531.97;;;7.28;73.64
9335;BME280;4706;41.844;26.082;2023-12-29T00:33:57;101528.13;;;7.29;73.50
9335;BME280;4706;41.844;26.082;2023-12-29T00:36:24;101534.25;;;7.37;72.68
9335;BME280;4706;41.844;26.082;2023-12-29T00:38:49;101530.13;;;7.12;73.79
9335;BME280;4706;41.844;26.082;2023-12-29T00:41:15;101523.19;;;7.26;73.30
9335;BME280;4706;41.844;26.082;2023-12-29T00:43:40;101508.09;;;7.24;73.03
9335;BME280;4706;41.844;26.082;2023-12-29T00:46:07;101507.72;;;7.37;73.09
9335;BME280;4706;41.844;26.082;2023-12-29T00:48:34;101512.44;;;7.42;73.71
9335;BME280;4706;41.844;26.082;2023-12-29T00:51:03;101516.94;;;7.53;73.53
9335;BME280;4706;41.844;26.082;2023-12-29T00:53:29;101527.75;;;7.43;72.35
9335;BME280;4706;41.844;26.082;2023-12-29T00:55:57;101516.94;;;7.31;72.36
9335;BME280;4706;41.844;26.082;2023-12-29T00:58:22;101515.50;;;7.23;72.51
9335;BME280;4706;41.844;26.082;2023-12-29T01:00:48;101511.44;;;7.26;72.12
9335;BME280;4706;41.844;26.082;2023-12-29T01:03:13;101494.69;;;7.00;72.63
9335;BME280;4706;41.844;26.082;2023-12-29T01:05:39;101497.66;;;6.99;72.65
9335;BME280;4706;41.844;26.082;2023-12-29T01:08:04;101499.97;;;7.07;72.40
9335;BME280;4706;41.844;26.082;2023-12-29T01:10:30;101509.50;;;7.26;72.24
9335;BME280;4706;41.844;26.082;2023-12-29T01:12:55;101519.63;;;7.26;72.66
9335;BME280;4706;41.844;26.082;2023-12-29T01:15:21;101507.75;;;7.15;72.60
9335;BME280;4706;41.844;26.082;2023-12-29T01:17:46;101510.56;;;7.25;72.40
9335;BME280;4706;41.844;26.082;2023-12-29T01:20:12;101507.00;;;7.25;72.16
9335;BME280;4706;41.844;26.082;2023-12-29T01:22:37;101506.69;;;7.21;72.17
9335;BME280;4706;41.844;26.082;2023-12-29T01:25:03;101510.78;;;7.19;71.84
9335;BME280;4706;41.844;26.082;2023-12-29T01:27:29;101500.34;;;6.94;72.15
9335;BME280;4706;41.844;26.082;2023-12-29T01:29:54;101513.44;;;7.14;71.59
9335;BME280;4706;41.844;26.082;2023-12-29T01:32:20;101520.81;;;7.13;70.86
9335;BME280;4706;41.844;26.082;2023-12-29T01:34:46;101510.16;;;7.12;71.14
9335;BME280;4706;41.844;26.082;2023-12-29T01:37:11;101494.63;;;7.17;70.50
9335;BME280;4706;41.844;26.082;2023-12-29T01:39:37;101501.72;;;7.40;69.55
9335;BME280;4706;41.844;26.082;2023-12-29T01:42:02;101497.34;;;7.17;70.35
9335;BME280;4706;41.844;26.082;2023-12-29T01:44:28;101510.22;;;7.17;70.71
9335;BME280;4706;41.844;26.082;2023-12-29T01:46:56;101507.66;;;7.10;70.70
9335;BME280;4706;41.844;26.082;2023-12-29T01:49:24;101497.16;;;7.02;70.55
9335;BME280;4706;41.844;26.082;2023-12-29T01:52:00;101490.88;;;7.01;70.65
9335;BME280;4706;41.844;26.082;2023-12-29T01:54:33;101484.81;;;6.99;70.73
9335;BME280;4706;41.844;26.082;2023-12-29T01:57:01;101487.63;;;7.04;70.14
9335;BME280;4706;41.844;26.082;2023-12-29T01:59:28;101486.03;;;7.09;70.06
9335;BME280;4706;41.844;26.082;2023-12-29T02:01:54;101481.69;;;7.13;71.08
9335;BME280;4706;41.844;26.082;2023-12-29T02:04:27;101475.41;;;7.12;71.16
9335;BME280;4706;41.844;26.082;2023-12-29T02:06:54;101470.81;;;7.18;71.45
9335;BME280;4706;41.844;26.082;2023-12-29T02:09:21;101470.75;;;7.13;71.52
9335;BME280;4706;41.844;26.082;2023-12-29T02:11:47;101475.84;;;7.26;71.75
9335;BME280;4706;41.844;26.082;2023-12-29T02:14:17;101479.41;;;7.04;71.22
9335;BME280;4706;41.844;26.082;2023-12-29T02:17:01;101470.00;;;6.95;71.50
9335;BME280;4706;41.844;26.082;2023-12-29T02:19:37;101467.19;;;7.12;71.51
9335;BME280;4706;41.844;26.082;2023-12-29T02:22:04;101465.41;;;7.23;71.54
9335;BME280;4706;41.844;26.082;2023-12-29T02:24:30;101443.75;;;7.21;71.36
9335;BME280;4706;41.844;26.082;2023-12-29T02:27:11;101461.47;;;7.14;72.14
9335;BME280;4706;41.844;26.082;2023-12-29T02:29:40;101457.13;;;7.18;71.79
9335;BME280;4706;41.844;26.082;2023-12-29T02:32:11;101451.66;;;7.18;71.71
9335;BME280;4706;41.844;26.082;2023-12-29T02:34:40;101442.44;;;7.24;71.43
9335;BME280;4706;41.844;26.082;2023-12-29T02:37:08;101440.28;;;7.26;70.51
9335;BME280;4706;41.844;26.082;2023-12-29T02:39:34;101443.56;;;7.28;71.21
9335;BME280;4706;41.844;26.082;2023-12-29T02:42:00;101434.22;;;7.24;70.93
9335;BME280;4706;41.844;26.082;2023-12-29T02:44:25;101430.97;;;7.27;70.34
9335;BME280;4706;41.844;26.082;2023-12-29T02:46:51;101432.59;;;7.23;69.85
9335;BME280;4706;41.844;26.082;2023-12-29T02:49:16;101424.53;;;7.11;69.47
9335;BME280;4706;41.844;26.082;2023-12-29T02:51:42;101431.66;;;6.90;69.84
9335;BME280;4706;41.844;26.082;2023-12-29T02:54:07;101425.94;;;6.70;70.66
9335;BME280;4706;41.844;26.082;2023-12-29T02:56:33;101425.53;;;6.61;71.31
9335;BME280;4706;41.844;26.082;2023-12-29T02:58:59;101431.72;;;6.51;71.37
9335;BME280;4706;41.844;26.082;2023-12-29T03:01:25;101423.19;;;6.48;71.40
9335;BME280;4706;41.844;26.082;2023-12-29T03:03:51;101422.88;;;6.44;70.97
9335;BME280;4706;41.844;26.082;2023-12-29T03:06:16;101409.81;;;6.29;70.83
9335;BME280;4706;41.844;26.082;2023-12-29T03:08:42;101412.38;;;6.36;70.89
9335;BME280;4706;41.844;26.082;2023-12-29T03:11:07;101431.88;;;6.45;71.64
9335;BME280;4706;41.844;26.082;2023-12-29T03:13:33;101428.88;;;6.46;71.45
9335;BME280;4706;41.844;26.082;2023-12-29T03:15:59;101439.00;;;6.46;70.68
9335;BME280;4706;41.844;26.082;2023-12-29T03:18:24;101438.56;;;6.54;70.81
9335;BME280;4706;41.844;26.082;2023-12-29T03:20:50;101431.88;;;6.45;71.27
9335;BME280;4706;41.844;26.082;2023-12-29T03:23:15;101427.91;;;6.36;71.01
9335;BME280;4706;41.844;26.082;2023-12-29T03:25:40;101434.47;;;6.35;71.02
9335;BME280;4706;41.844;26.082;2023-12-29T03:28:06;101428.72;;;6.14;71.27
9335;BME280;4706;41.844;26.082;2023-12-29T03:30:31;101433.41;;;6.19;71.44
9335;BME280;4706;41.844;26.082;2023-12-29T03:32:57;101426.88;;;6.20;71.12
9335;BME280;4706;41.844;26.082;2023-12-29T03:35:22;101432.66;;;6.23;71.57
9335;BME280;4706;41.844;26.082;2023-12-29T03:37:48;101430.91;;;6.34;71.64
9335;BME280;4706;41.844;26.082;2023-12-29T03:40:13;101424.19;;;6.42;71.63
9335;BME280;4706;41.844;26.082;2023-12-29T03:42:39;101425.34;;;6.46;72.30
9335;BME280;4706;41.844;26.082;2023-12-29T03:45:05;101436.03;;;6.47;71.56
9335;BME280;4706;41.844;26.082;2023-12-29T03:47:30;101431.63;;;6.46;72.36
9335;BME280;4706;41.844;26.082;2023-12-29T03:49:57;101423.09;;;6.43;71.70
9335;BME280;4706;41.844;26.082;2023-12-29T03:52:23;101429.72;;;6.47;71.81
9335;BME280;4706;41.844;26.082;2023-12-29T03:54:48;101432.44;;;6.47;71.13
9335;BME280;4706;41.844;26.082;2023-12-29T03:57:14;101431.94;;;6.50;72.07
9335;BME280;4706;41.844;26.082;2023-12-29T03:59:39;101436.09;;;6.52;72.57
9335;BME280;4706;41.844;26.082;2023-12-29T04:02:05;101434.19;;;6.53;72.24
9335;BME280;4706;41.844;26.082;2023-12-29T04:04:30;101436.03;;;6.47;72.86
9335;BME280;4706;41.844;26.082;2023-12-29T04:06:56;101450.44;;;6.43;73.43
9335;BME280;4706;41.844;26.082;2023-12-29T04:09:21;101437.34;;;6.45;73.36
9335;BME280;4706;41.844;26.082;2023-12-29T04:11:46;101441.66;;;6.41;73.89
9335;BME280;4706;41.844;26.082;2023-12-29T04:14:15;101436.69;;;6.38;73.86
9335;BME280;4706;41.844;26.082;2023-12-29T04:16:41;101447.13;;;6.41;73.87
9335;BME280;4706;41.844;26.082;2023-12-29T04:19:06;101436.69;;;6.38;72.32
9335;BME280;4706;41.844;26.082;2023-12-29T04:21:32;101431.25;;;6.38;72.78
9335;BME280;4706;41.844;26.082;2023-12-29T04:23:58;101430.84;;;6.29;73.36
9335;BME280;4706;41.844;26.082;2023-12-29T04:26:23;101430.09;;;6.33;72.35
9335;BME280;4706;41.844;26.082;2023-12-29T04:28:49;101438.84;;;6.36;71.48
9335;BME280;4706;41.844;26.082;2023-12-29T04:31:14;101441.84;;;6.34;71.52
9335;BME280;4706;41.844;26.082;2023-12-29T04:33:40;101434.50;;;6.18;71.90
9335;BME280;4706;41.844;26.082;2023-12-29T04:36:05;101441.22;;;6.10;72.81
9335;BME280;4706;41.844;26.082;2023-12-29T04:38:31;101421.69;;;6.01;72.93
9335;BME280;4706;41.844;26.082;2023-12-29T04:40:56;101423.69;;;6.06;72.30
9335;BME280;4706;41.844;26.082;2023-12-29T04:43:22;101419.19;;;6.00;72.07
9335;BME280;4706;41.844;26.082;2023-12-29T04:45:47;101427.31;;;6.12;72.79
9335;BME280;4706;41.844;26.082;2023-12-29T04:48:13;101414.56;;;6.00;72.41
9335;BME280;4706;41.844;26.082;2023-12-29T04:50:38;101420.50;;;5.80;72.86
9335;BME280;4706;41.844;26.082;2023-12-29T04:53:04;101414.69;;;5.60;73.98
9335;BME280;4706;41.844;26.082;2023-12-29T04:55:29;101425.13;;;5.63;74.18
9335;BME280;4706;41.844;26.082;2023-12-29T04:57:55;101436.09;;;5.51;75.09
9335;BME280;4706;41.844;26.082;2023-12-29T05:00:20;101423.88;;;5.54;74.61
9335;BME280;4706;41.844;26.082;2023-12-29T05:02:46;101421.22;;;5.59;74.87
9335;BME280;4706;41.844;26.082;2023-12-29T05:05:11;101428.59;;;5.58;74.78
9335;BME280;4706;41.844;26.082;2023-12-29T05:07:37;101430.69;;;5.68;74.38
9335;BME280;4706;41.844;26.082;2023-12-29T05:10:02;101419.03;;;5.73;73.36
9335;BME280;4706;41.844;26.082;2023-12-29T05:12:28;101421.50;;;5.74;72.88
9335;BME280;4706;41.844;26.082;2023-12-29T05:14:55;101433.16;;;5.70;72.84
9335;BME280;4706;41.844;26.082;2023-12-29T05:17:20;101427.69;;;5.70;72.41
9335;BME280;4706;41.844;26.082;2023-12-29T05:19:46;101415.09;;;5.52;72.65
9335;BME280;4706;41.844;26.082;2023-12-29T05:22:11;101403.34;;;5.34;72.84
9335;BME280;4706;41.844;26.082;2023-12-29T05:24:42;101409.22;;;4.98;73.60
9335;BME280;4706;41.844;26.082;2023-12-29T05:27:07;101421.31;;;5.19;73.83
9335;BME280;4706;41.844;26.082;2023-12-29T05:29:33;101412.50;;;5.28;73.29
9335;BME280;4706;41.844;26.082;2023-12-29T05:31:58;101423.94;;;5.42;73.84
9335;BME280;4706;41.844;26.082;2023-12-29T05:34:24;101420.97;;;5.44;73.90
9335;BME280;4706;41.844;26.082;2023-12-29T05:36:49;101425.88;;;5.58;74.12
9335;BME280;4706;41.844;26.082;2023-12-29T05:39:15;101437.38;;;5.77;73.57
9335;BME280;4706;41.844;26.082;2023-12-29T05:41:40;101440.69;;;5.79;73.28
9335;BME280;4706;41.844;26.082;2023-12-29T05:44:05;101431.91;;;5.77;73.52
9335;BME280;4706;41.844;26.082;2023-12-29T05:46:31;101422.66;;;5.78;73.54
9335;BME280;4706;41.844;26.082;2023-12-29T05:48:56;101418.94;;;5.84;72.64
9335;BME280;4706;41.844;26.082;2023-12-29T05:51:22;101436.88;;;5.64;72.45
9335;BME280;4706;41.844;26.082;2023-12-29T05:53:48;101423.78;;;5.49;72.44
9335;BME280;4706;41.844;26.082;2023-12-29T05:56:13;101427.50;;;5.43;72.40
9335;BME280;4706;41.844;26.082;2023-12-29T05:58:43;101427.66;;;5.36;72.54
9335;BME280;4706;41.844;26.082;2023-12-29T06:01:08;101428.97;;;5.33;73.10
9335;BME280;4706;41.844;26.082;2023-12-29T06:03:34;101424.66;;;5.38;72.10
9335;BME280;4706;41.844;26.082;2023-12-29T06:06:00;101413.13;;;5.19;72.72
9335;BME280;4706;41.844;26.082;2023-12-29T06:08:25;101437.00;;;5.40;72.88
9335;BME280;4706;41.844;26.082;2023-12-29T06:10:51;101438.97;;;5.45;74.00
9335;BME280;4706;41.844;26.082;2023-12-29T06:13:16;101439.81;;;5.45;74.58
9335;BME280;4706;41.844;26.082;2023-12-29T06:15:42;101441.84;;;5.67;74.27
9335;BME280;4706;41.844;26.082;2023-12-29T06:18:08;101435.06;;;5.69;73.63
9335;BME280;4706;41.844;26.082;2023-12-29T06:20:33;101429.53;;;5.81;73.48
9335;BME280;4706;41.844;26.082;2023-12-29T06:22:59;101441.59;;;5.85;73.15
9335;BME280;4706;41.844;26.082;2023-12-29T06:25:24;101418.09;;;5.67;72.99
9335;BME280;4706;41.844;26.082;2023-12-29T06:27:50;101427.28;;;5.61;73.50
9335;BME280;4706;41.844;26.082;2023-12-29T06:30:15;101419.22;;;5.38;74.41
9335;BME280;4706;41.844;26.082;2023-12-29T06:32:41;101429.69;;;5.57;74.31
9335;BME280;4706;41.844;26.082;2023-12-29T06:35:07;101437.94;;;5.46;74.71
9335;BME280;4706;41.844;26.082;2023-12-29T06:37:32;101422.88;;;5.43;74.91
9335;BME280;4706;41.844;26.082;2023-12-29T06:39:58;101426.41;;;5.27;76.00
9335;BME280;4706;41.844;26.082;2023-12-29T06:42:24;101442.06;;;5.48;76.50
9335;BME280;4706;41.844;26.082;2023-12-29T06:44:50;101441.09;;;5.71;75.53
9335;BME280;4706;41.844;26.082;2023-12-29T06:47:15;101448.91;;;5.96;74.44
9335;BME280;4706;41.844;26.082;2023-12-29T06:49:40;101452.38;;;6.08;74.00
9335;BME280;4706;41.844;26.082;2023-12-29T06:52:06;101440.59;;;6.42;72.67
9335;BME280;4706;41.844;26.082;2023-12-29T06:54:34;101456.69;;;6.60;72.03
9335;BME280;4706;41.844;26.082;2023-12-29T06:56:59;101456.72;;;6.82;71.85
9335;BME280;4706;41.844;26.082;2023-12-29T06:59:25;101457.28;;;7.06;71.58
9335;BME280;4706;41.844;26.082;2023-12-29T07:01:50;101453.41;;;7.02;70.19
9335;BME280;4706;41.844;26.082;2023-12-29T07:04:16;101438.53;;;6.93;70.77
9335;BME280;4706;41.844;26.082;2023-12-29T07:06:42;101450.09;;;7.00;70.50
9335;BME280;4706;41.844;26.082;2023-12-29T07:09:08;101429.22;;;7.16;69.71
9335;BME280;4706;41.844;26.082;2023-12-29T07:11:34;101431.28;;;7.30;69.90
9335;BME280;4706;41.844;26.082;2023-12-29T07:13:59;101433.44;;;7.28;69.91
9335;BME280;4706;41.844;26.082;2023-12-29T07:16:25;101431.66;;;7.39;69.85
9335;BME280;4706;41.844;26.082;2023-12-29T07:18:50;101421.28;;;7.41;70.27
9335;BME280;4706;41.844;26.082;2023-12-29T07:21:17;101431.78;;;7.54;69.19
9335;BME280;4706;41.844;26.082;2023-12-29T07:23:43;101430.69;;;7.55;69.51
9335;BME280;4706;41.844;26.082;2023-12-29T07:26:08;101426.81;;;7.51;68.72
9335;BME280;4706;41.844;26.082;2023-12-29T07:28:34;101419.81;;;7.61;69.63
9335;BME280;4706;41.844;26.082;2023-12-29T07:31:00;101440.78;;;7.82;69.33
9335;BME280;4706;41.844;26.082;2023-12-29T07:33:26;101441.41;;;7.89;68.37
9335;BME280;4706;41.844;26.082;2023-12-29T07:35:52;101439.06;;;8.03;68.24
9335;BME280;4706;41.844;26.082;2023-12-29T07:38:17;101434.66;;;8.02;68.66
9335;BME280;4706;41.844;26.082;2023-12-29T07:40:43;101445.31;;;8.36;67.44
9335;BME280;4706;41.844;26.082;2023-12-29T07:43:09;101432.66;;;8.30;67.38
9335;BME280;4706;41.844;26.082;2023-12-29T07:45:34;101440.75;;;8.46;67.49
9335;BME280;4706;41.844;26.082;2023-12-29T07:48:02;101447.34;;;8.50;67.61
9335;BME280;4706;41.844;26.082;2023-12-29T07:50:27;101444.47;;;8.78;67.04
9335;BME280;4706;41.844;26.082;2023-12-29T07:52:53;101454.19;;;9.06;65.92
9335;BME280;4706;41.844;26.082;2023-12-29T07:55:19;101445.19;;;9.20;64.81
9335;BME280;4706;41.844;26.082;2023-12-29T07:57:44;101441.94;;;9.39;64.21
9335;BME280;4706;41.844;26.082;2023-12-29T08:00:12;101448.97;;;9.09;64.42
9335;BME280;4706;41.844;26.082;2023-12-29T08:02:38;101451.72;;;8.99;65.83
9335;BME280;4706;41.844;26.082;2023-12-29T08:05:03;101460.28;;;9.23;65.77
9335;BME280;4706;41.844;26.082;2023-12-29T08:07:29;101457.53;;;9.28;65.13
9335;BME280;4706;41.844;26.082;2023-12-29T08:09:54;101454.84;;;9.38;65.25
9335;BME280;4706;41.844;26.082;2023-12-29T08:12:20;101442.47;;;9.36;65.19
9335;BME280;4706;41.844;26.082;2023-12-29T08:14:45;101454.03;;;9.48;65.48
9335;BME280;4706;41.844;26.082;2023-12-29T08:17:10;101446.03;;;9.31;66.14
9335;BME280;4706;41.844;26.082;2023-12-29T08:19:36;101447.13;;;9.30;66.45
9335;BME280;4706;41.844;26.082;2023-12-29T08:22:02;101463.94;;;9.49;66.74
9335;BME280;4706;41.844;26.082;2023-12-29T08:24:27;101452.41;;;9.57;66.92
9335;BME280;4706;41.844;26.082;2023-12-29T08:26:53;101456.28;;;10.02;66.96
9335;BME280;4706;41.844;26.082;2023-12-29T08:29:18;101451.88;;;10.06;65.81
9335;BME280;4706;41.844;26.082;2023-12-29T08:31:45;101456.81;;;10.30;65.54
9335;BME280;4706;41.844;26.082;2023-12-29T08:34:10;101439.50;;;10.14;66.19
9335;BME280;4706;41.844;26.082;2023-12-29T08:36:36;101444.44;;;10.37;66.64
9335;BME280;4706;41.844;26.082;2023-12-29T08:39:02;101450.44;;;10.65;65.40
9335;BME280;4706;41.844;26.082;2023-12-29T08:41:28;101449.28;;;10.81;66.54
9335;BME280;4706;41.844;26.082;2023-12-29T08:43:53;101454.16;;;11.00;66.00
9335;BME280;4706;41.844;26.082;2023-12-29T08:46:19;101441.78;;;10.97;66.06
9335;BME280;4706;41.844;26.082;2023-12-29T08:48:45;101438.06;;;11.22;65.76
9335;BME280;4706;41.844;26.082;2023-12-29T08:51:10;101446.50;;;11.41;65.49
9335;BME280;4706;41.844;26.082;2023-12-29T08:53:36;101443.16;;;11.49;65.88
9335;BME280;4706;41.844;26.082;2023-12-29T08:56:02;101446.28;;;11.72;65.34
9335;BME280;4706;41.844;26.082;2023-12-29T08:58:28;101431.91;;;11.80;64.91
9335;BME280;4706;41.844;26.082;2023-12-29T09:00:53;101440.06;;;11.95;65.23
9335;BME280;4706;41.844;26.082;2023-12-29T09:03:19;101432.38;;;11.92;65.73
9335;BME280;4706;41.844;26.082;2023-12-29T09:05:45;101439.06;;;11.86;66.51
9335;BME280;4706;41.844;26.082;2023-12-29T09:08:10;101434.56;;;11.95;66.04
9335;BME280;4706;41.844;26.082;2023-12-29T09:10:35;101418.97;;;11.75;67.64
9335;BME280;4706;41.844;26.082;2023-12-29T09:13:01;101423.09;;;11.78;67.92
9335;BME280;4706;41.844;26.082;2023-12-29T09:15:26;101411.59;;;11.71;69.25
9335;BME280;4706;41.844;26.082;2023-12-29T09:17:52;101403.13;;;11.96;68.78
9335;BME280;4706;41.844;26.082;2023-12-29T09:20:17;101393.59;;;12.12;69.56
9335;BME280;4706;41.844;26.082;2023-12-29T09:22:43;101391.25;;;12.25;69.45
9335;BME280;4706;41.844;26.082;2023-12-29T09:25:08;101390.50;;;12.43;69.19
9335;BME280;4706;41.844;26.082;2023-12-29T09:27:34;101369.59;;;12.37;69.03
9335;BME280;4706;41.844;26.082;2023-12-29T09:29:59;101374.94;;;12.04;71.53
9335;BME280;4706;41.844;26.082;2023-12-29T09:32:25;101389.63;;;12.24;70.94
9335;BME280;4706;41.844;26.082;2023-12-29T09:34:50;101377.47;;;12.25;71.71
9335;BME280;4706;41.844;26.082;2023-12-29T09:37:17;101371.19;;;12.43;71.88
9335;BME280;4706;41.844;26.082;2023-12-29T09:39:43;101372.75;;;12.73;71.47
9335;BME280;4706;41.844;26.082;2023-12-29T09:42:13;101372.88;;;13.06;70.47
9335;BME280;4706;41.844;26.082;2023-12-29T09:44:45;101367.19;;;13.16;69.37
9335;BME280;4706;41.844;26.082;2023-12-29T09:47:14;101371.31;;;13.38;68.95
9335;BME280;4706;41.844;26.082;2023-12-29T09:49:42;101365.56;;;13.53;68.08
9335;BME280;4706;41.844;26.082;2023-12-29T09:52:09;101367.00;;;13.50;68.53
9335;BME280;4706;41.844;26.082;2023-12-29T09:54:36;101362.84;;;13.67;67.78
9335;BME280;4706;41.844;26.082;2023-12-29T09:57:04;101352.72;;;13.76;66.48
9335;BME280;4706;41.844;26.082;2023-12-29T09:59:33;101364.75;;;13.85;67.56
9335;BME280;4706;41.844;26.082;2023-12-29T10:01:59;101345.13;;;13.68;67.60
9335;BME280;4706;41.844;26.082;2023-12-29T10:04:25;101344.94;;;14.11;66.99
9335;BME280;4706;41.844;26.082;2023-12-29T10:06:51;101345.66;;;14.30;65.06
9335;BME280;4706;41.844;26.082;2023-12-29T10:09:20;101328.72;;;14.04;66.41
9335;BME280;4706;41.844;26.082;2023-12-29T10:11:47;101328.09;;;13.93;66.88
9335;BME280;4706;41.844;26.082;2023-12-29T10:14:24;101319.72;;;14.26;66.07
9335;BME280;4706;41.844;26.082;2023-12-29T10:17:06;101307.94;;;14.34;65.51
9335;BME280;4706;41.844;26.082;2023-12-29T10:19:49;101316.22;;;14.48;65.29
9335;BME280;4706;41.844;26.082;2023-12-29T10:24:49;101305.16;;;14.75;64.83
9335;BME280;4706;41.844;26.082;2023-12-29T10:27:16;101292.91;;;14.90;64.81
9335;BME280;4706;41.844;26.082;2023-12-29T10:29:41;101291.56;;;14.88;64.35
9335;BME280;4706;41.844;26.082;2023-12-29T10:32:07;101291.25;;;14.89;64.91
9335;BME280;4706;41.844;26.082;2023-12-29T10:34:32;101285.59;;;14.94;64.84
9335;BME280;4706;41.844;26.082;2023-12-29T10:36:58;101281.19;;;14.57;64.97
9335;BME280;4706;41.844;26.082;2023-12-29T10:39:25;101277.16;;;14.36;66.08
9335;BME280;4706;41.844;26.082;2023-12-29T10:42:02;101275.75;;;14.38;66.81
9335;BME280;4706;41.844;26.082;2023-12-29T10:44:29;101274.44;;;14.49;66.50
9335;BME280;4706;41.844;26.082;2023-12-29T10:46:55;101262.75;;;14.52;66.42
9335;BME280;4706;41.844;26.082;2023-12-29T10:49:20;101252.06;;;14.60;66.18
9335;BME280;4706;41.844;26.082;2023-12-29T10:51:46;101254.59;;;14.70;65.92
9335;BME280;4706;41.844;26.082;2023-12-29T10:54:21;101251.34;;;14.54;66.26
9335;BME280;4706;41.844;26.082;2023-12-29T10:57:01;101245.88;;;14.63;66.25
9335;BME280;4706;41.844;26.082;2023-12-29T10:59:30;101239.22;;;14.64;66.24
9335;BME280;4706;41.844;26.082;2023-12-29T11:01:56;101237.41;;;14.81;66.01
9335;BME280;4706;41.844;26.082;2023-12-29T11:04:22;101246.75;;;14.86;65.84
9335;BME280;4706;41.844;26.082;2023-12-29T11:06:48;101234.81;;;14.63;66.55
9335;BME280;4706;41.844;26.082;2023-12-29T11:11:59;101229.75;;;14.78;67.07
9335;BME280;4706;41.844;26.082;2023-12-29T11:14:25;101218.00;;;14.59;67.79
9335;BME280;4706;41.844;26.082;2023-12-29T11:16:52;101214.94;;;14.61;68.25
9335;BME280;4706;41.844;26.082;2023-12-29T11:19:21;101205.88;;;14.69;68.03
9335;BME280;4706;41.844;26.082;2023-12-29T11:21:48;101206.53;;;14.88;67.85
9335;BME280;4706;41.844;26.082;2023-12-29T11:24:16;101205.28;;;14.94;67.47
9335;BME280;4706;41.844;26.082;2023-12-29T11:26:43;101196.91;;;14.86;67.67
9335;BME280;4706;41.844;26.082;2023-12-29T11:29:09;101199.47;;;14.82;67.91
9335;BME280;4706;41.844;26.082;2023-12-29T11:31:37;101193.88;;;14.96;68.03
9335;BME280;4706;41.844;26.082;2023-12-29T11:34:09;101190.13;;;15.00;67.73
9335;BME280;4706;41.844;26.082;2023-12-29T11:36:39;101179.38;;;14.99;67.89
9335;BME280;4706;41.844;26.082;2023-12-29T11:39:51;101187.75;;;14.85;68.76
9335;BME280;4706;41.844;26.082;2023-12-29T11:42:21;101186.63;;;15.09;68.01
9335;BME280;4706;41.844;26.082;2023-12-29T11:44:48;101191.22;;;15.13;67.60
9335;BME280;4706;41.844;26.082;2023-12-29T11:47:35;101187.44;;;15.09;68.08
9335;BME280;4706;41.844;26.082;2023-12-29T11:50:02;101187.13;;;15.11;67.97
9335;BME280;4706;41.844;26.082;2023-12-29T11:52:38;101177.56;;;14.94;68.18
9335;BME280;4706;41.844;26.082;2023-12-29T11:55:11;101172.78;;;14.86;69.06
9335;BME280;4706;41.844;26.082;2023-12-29T11:57:37;101178.63;;;14.85;69.08
9335;BME280;4706;41.844;26.082;2023-12-29T12:00:06;101177.69;;;14.89;69.28
9335;BME280;4706;41.844;26.082;2023-12-29T12:02:32;101167.97;;;15.00;68.54
9335;BME280;4706;41.844;26.082;2023-12-29T12:04:57;101165.09;;;15.05;68.64
9335;BME280;4706;41.844;26.082;2023-12-29T12:09:51;101162.78;;;14.76;69.42
9335;BME280;4706;41.844;26.082;2023-12-29T12:12:42;101170.50;;;14.66;69.18
9335;BME280;4706;41.844;26.082;2023-12-29T12:17:51;101169.63;;;14.56;69.70
9335;BME280;4706;41.844;26.082;2023-12-29T12:20:17;101159.56;;;14.61;69.85
9335;BME280;4706;41.844;26.082;2023-12-29T12:22:43;101180.19;;;14.77;70.29
9335;BME280;4706;41.844;26.082;2023-12-29T12:25:11;101184.44;;;14.74;69.59
9335;BME280;4706;41.844;26.082;2023-12-29T12:27:38;101184.06;;;14.67;69.39
9335;BME280;4706;41.844;26.082;2023-12-29T12:30:04;101175.97;;;14.57;70.05
9335;BME280;4706;41.844;26.082;2023-12-29T12:32:30;101176.13;;;14.52;70.99
9335;BME280;4706;41.844;26.082;2023-12-29T12:34:56;101179.94;;;14.65;70.53
9335;BME280;4706;41.844;26.082;2023-12-29T12:37:22;101189.78;;;14.71;69.41
9335;BME280;4706;41.844;26.082;2023-12-29T12:39:48;101182.00;;;14.59;69.58
9335;BME280;4706;41.844;26.082;2023-12-29T12:42:15;101183.66;;;14.60;69.71
9335;BME280;4706;41.844;26.082;2023-12-29T12:44:49;101181.72;;;14.47;70.02
9335;BME280;4706;41.844;26.082;2023-12-29T12:47:31;101180.31;;;14.36;70.06
9335;BME280;4706;41.844;26.082;2023-12-29T12:49:59;101177.00;;;14.11;71.57
9335;BME280;4706;41.844;26.082;2023-12-29T12:52:25;101175.78;;;14.03;72.35
9335;BME280;4706;41.844;26.082;2023-12-29T12:54:53;101180.56;;;14.12;72.45
9335;BME280;4706;41.844;26.082;2023-12-29T12:57:20;101181.06;;;14.14;72.06
9335;BME280;4706;41.844;26.082;2023-12-29T12:59:46;101188.25;;;14.15;72.37
9335;BME280;4706;41.844;26.082;2023-12-29T13:02:12;101182.09;;;14.18;72.14
9335;BME280;4706;41.844;26.082;2023-12-29T13:04:40;101191.53;;;14.17;71.27
9335;BME280;4706;41.844;26.082;2023-12-29T13:07:06;101196.34;;;14.11;71.80
9335;BME280;4706;41.844;26.082;2023-12-29T13:09:32;101193.06;;;14.09;71.70
9335;BME280;4706;41.844;26.082;2023-12-29T13:12:13;101198.31;;;13.97;72.09
9335;BME280;4706;41.844;26.082;2023-12-29T13:14:41;101192.56;;;13.79;72.85
9335;BME280;4706;41.844;26.082;2023-12-29T13:17:11;101206.72;;;13.78;72.90